sensor_id;sensor_type;location;lat;lon;timestamp;pressure;altitude;pressure_sealevel;temperature;humidity
6435;BME280;3250;42.694;23.278;2023-03-03T00:02:03;94810.22;;;5.15;85.93
6435;BME280;3250;42.694;23.278;2023-03-03T00:04:29;94871.63;;;5.55;85.71
6435;BME280;3250;42.694;23.278;2023-03-03T00:06:54;94845.97;;;5.44;85.46
6435;BME280;3250;42.694;23.278;2023-03-03T00:09:19;94876.66;;;5.57;85.61
6435;BME280;3250;42.694;23.278;2023-03-03T00:11:47;94866.13;;;5.50;85.85
6435;BME280;3250;42.694;23.278;2023-03-03T00:14:29;94868.03;;;5.56;85.51
6435;BME280;3250;42.694;23.278;2023-03-03T00:16:55;94826.25;;;5.27;85.75
6435;BME280;3250;42.694;23.278;2023-03-03T00:19:21;94862.63;;;5.43;86.14
6435;BME280;3250;42.694;23.278;2023-03-03T00:21:51;94837.78;;;5.32;86.34
6435;BME280;3250;42.694;23.278;2023-03-03T00:24:23;94858.72;;;5.54;85.98
6435;BME280;3250;42.694;23.278;2023-03-03T00:26:54;94833.44;;;5.40;86.06
6435;BME280;3250;42.694;23.278;2023-03-03T00:29:38;94854.41;;;5.46;86.11
6435;BME280;3250;42.694;23.278;2023-03-03T00:34:40;94855.34;;;5.53;86.30
6435;BME280;3250;42.694;23.278;2023-03-03T00:39:49;94844.97;;;5.45;86.28
6435;BME280;3250;42.694;23.278;2023-03-03T00:42:17;94851.38;;;5.43;87.03
6435;BME280;3250;42.694;23.278;2023-03-03T00:44:58;94802.91;;;5.11;87.35
6435;BME280;3250;42.694;23.278;2023-03-03T00:52:40;94826.50;;;5.32;87.41
6435;BME280;3250;42.694;23.278;2023-03-03T00:55:10;94814.38;;;5.24;87.60
6435;BME280;3250;42.694;23.278;2023-03-03T00:57:35;94825.19;;;5.36;87.64
6435;BME280;3250;42.694;23.278;2023-03-03T01:00:01;94815.53;;;5.22;87.59
6435;BME280;3250;42.694;23.278;2023-03-03T01:02:28;94807.22;;;5.04;88.63
6435;BME280;3250;42.694;23.278;2023-03-03T01:04:53;94797.53;;;5.12;88.18
6435;BME280;3250;42.694;23.278;2023-03-03T01:07:22;94816.34;;;5.22;88.38
6435;BME280;3250;42.694;23.278;2023-03-03T01:09:48;94806.72;;;5.23;88.22
6435;BME280;3250;42.694;23.278;2023-03-03T01:12:14;94806.28;;;5.34;88.11
6435;BME280;3250;42.694;23.278;2023-03-03T01:14:40;94812.22;;;5.43;87.42
6435;BME280;3250;42.694;23.278;2023-03-03T01:17:06;94811.31;;;5.50;87.22
6435;BME280;3250;42.694;23.278;2023-03-03T01:19:31;94801.31;;;5.39;87.34
6435;BME280;3250;42.694;23.278;2023-03-03T01:21:57;94789.63;;;5.35;87.56
6435;BME280;3250;42.694;23.278;2023-03-03T01:24:23;94803.03;;;5.47;87.52
6435;BME280;3250;42.694;23.278;2023-03-03T01:26:48;94809.34;;;5.52;87.06
6435;BME280;3250;42.694;23.278;2023-03-03T01:29:14;94796.00;;;5.32;87.89
6435;BME280;3250;42.694;23.278;2023-03-03T01:31:39;94800.78;;;5.44;87.67
6435;BME280;3250;42.694;23.278;2023-03-03T01:34:05;94806.91;;;5.51;86.93
6435;BME280;3250;42.694;23.278;2023-03-03T01:36:32;94814.91;;;5.49;87.44
6435;BME280;3250;42.694;23.278;2023-03-03T01:38:58;94799.44;;;5.48;87.00
6435;BME280;3250;42.694;23.278;2023-03-03T01:41:27;94800.34;;;5.40;87.51
6435;BME280;3250;42.694;23.278;2023-03-03T01:43:54;94800.16;;;5.27;87.83
6435;BME280;3250;42.694;23.278;2023-03-03T01:48:52;94800.50;;;5.24;89.29
6435;BME280;3250;42.694;23.278;2023-03-03T01:51:30;94806.53;;;5.24;88.50
6435;BME280;3250;42.694;23.278;2023-03-03T01:54:04;94780.34;;;5.03;88.41
6435;BME280;3250;42.694;23.278;2023-03-03T01:56:30;94741.81;;;4.76;88.86
6435;BME280;3250;42.694;23.278;2023-03-03T01:59:10;94795.72;;;4.98;90.01
6435;BME280;3250;42.694;23.278;2023-03-03T02:01:36;94790.41;;;5.06;89.62
6435;BME280;3250;42.694;23.278;2023-03-03T02:04:02;94767.38;;;4.95;89.20
6435;BME280;3250;42.694;23.278;2023-03-03T02:06:40;94777.28;;;5.00;89.23
6435;BME280;3250;42.694;23.278;2023-03-03T02:09:20;94793.19;;;5.05;89.58
6435;BME280;3250;42.694;23.278;2023-03-03T02:11:48;94783.56;;;5.05;89.82
6435;BME280;3250;42.694;23.278;2023-03-03T02:14:15;94790.00;;;5.17;88.85
6435;BME280;3250;42.694;23.278;2023-03-03T02:16:40;94787.56;;;5.16;88.52
6435;BME280;3250;42.694;23.278;2023-03-03T02:19:15;94789.34;;;5.01;88.79
6435;BME280;3250;42.694;23.278;2023-03-03T02:21:45;94794.91;;;5.12;88.76
6435;BME280;3250;42.694;23.278;2023-03-03T02:27:01;94788.31;;;5.02;88.94
6435;BME280;3250;42.694;23.278;2023-03-03T02:29:27;94783.03;;;4.95;89.26
6435;BME280;3250;42.694;23.278;2023-03-03T02:31:52;94798.16;;;5.14;88.78
6435;BME280;3250;42.694;23.278;2023-03-03T02:34:18;94772.69;;;5.02;88.16
6435;BME280;3250;42.694;23.278;2023-03-03T02:36:43;94787.72;;;5.14;88.36
6435;BME280;3250;42.694;23.278;2023-03-03T02:41:59;94790.88;;;5.39;87.46
6435;BME280;3250;42.694;23.278;2023-03-03T02:44:28;94791.50;;;5.41;86.78
6435;BME280;3250;42.694;23.278;2023-03-03T02:46:55;94789.72;;;5.27;86.76
6435;BME280;3250;42.694;23.278;2023-03-03T02:49:26;94786.91;;;4.99;87.87
6435;BME280;3250;42.694;23.278;2023-03-03T02:51:53;94770.22;;;4.85;88.82
6435;BME280;3250;42.694;23.278;2023-03-03T02:54:20;94787.25;;;5.11;88.23
6435;BME280;3250;42.694;23.278;2023-03-03T02:56:46;94786.56;;;5.17;88.27
6435;BME280;3250;42.694;23.278;2023-03-03T02:59:12;94784.13;;;5.15;88.14
6435;BME280;3250;42.694;23.278;2023-03-03T03:01:37;94740.31;;;4.96;87.69
6435;BME280;3250;42.694;23.278;2023-03-03T03:04:09;94786.75;;;5.30;87.66
6435;BME280;3250;42.694;23.278;2023-03-03T03:06:35;94783.78;;;5.33;87.43
6435;BME280;3250;42.694;23.278;2023-03-03T03:09:01;94777.56;;;5.34;87.19
6435;BME280;3250;42.694;23.278;2023-03-03T03:11:26;94793.47;;;5.39;87.08
6435;BME280;3250;42.694;23.278;2023-03-03T03:13:51;94756.69;;;5.19;87.60
6435;BME280;3250;42.694;23.278;2023-03-03T03:16:18;94775.88;;;5.26;87.71
6435;BME280;3250;42.694;23.278;2023-03-03T03:18:43;94774.78;;;5.36;87.83
6435;BME280;3250;42.694;23.278;2023-03-03T03:21:10;94768.28;;;5.31;87.37
6435;BME280;3250;42.694;23.278;2023-03-03T03:23:36;94781.16;;;5.33;87.93
6435;BME280;3250;42.694;23.278;2023-03-03T03:26:02;94777.09;;;5.30;88.15
6435;BME280;3250;42.694;23.278;2023-03-03T03:28:28;94727.00;;;5.06;87.70
6435;BME280;3250;42.694;23.278;2023-03-03T03:30:54;94740.69;;;5.08;88.26
6435;BME280;3250;42.694;23.278;2023-03-03T03:33:19;94768.13;;;5.18;88.72
6435;BME280;3250;42.694;23.278;2023-03-03T03:35:45;94778.22;;;5.36;89.03
6435;BME280;3250;42.694;23.278;2023-03-03T03:38:12;94773.25;;;5.41;88.24
6435;BME280;3250;42.694;23.278;2023-03-03T03:40:39;94758.66;;;5.32;88.36
6435;BME280;3250;42.694;23.278;2023-03-03T03:43:05;94764.97;;;5.23;88.72
6435;BME280;3250;42.694;23.278;2023-03-03T03:45:31;94767.66;;;5.15;89.25
6435;BME280;3250;42.694;23.278;2023-03-03T03:47:56;94770.44;;;4.99;89.97
6435;BME280;3250;42.694;23.278;2023-03-03T03:50:22;94760.38;;;4.96;90.25
6435;BME280;3250;42.694;23.278;2023-03-03T03:52:48;94761.25;;;4.88;90.75
6435;BME280;3250;42.694;23.278;2023-03-03T03:55:14;94763.94;;;4.94;91.30
6435;BME280;3250;42.694;23.278;2023-03-03T03:57:40;94763.44;;;4.99;90.85
6435;BME280;3250;42.694;23.278;2023-03-03T04:00:07;94765.31;;;5.05;91.19
6435;BME280;3250;42.694;23.278;2023-03-03T04:02:33;94740.41;;;4.88;91.01
6435;BME280;3250;42.694;23.278;2023-03-03T04:04:59;94746.34;;;4.97;91.32
6435;BME280;3250;42.694;23.278;2023-03-03T04:07:24;94690.13;;;4.65;91.53
6435;BME280;3250;42.694;23.278;2023-03-03T04:09:49;94709.28;;;4.72;91.48
6435;BME280;3250;42.694;23.278;2023-03-03T04:12:15;94758.38;;;5.12;91.67
6435;BME280;3250;42.694;23.278;2023-03-03T04:14:40;94724.66;;;4.81;91.14
6435;BME280;3250;42.694;23.278;2023-03-03T04:17:06;94702.63;;;4.69;91.03
6435;BME280;3250;42.694;23.278;2023-03-03T04:19:31;94756.84;;;5.03;91.40
6435;BME280;3250;42.694;23.278;2023-03-03T04:21:56;94757.16;;;5.08;91.79
6435;BME280;3250;42.694;23.278;2023-03-03T04:24:22;94714.22;;;4.81;91.29
6435;BME280;3250;42.694;23.278;2023-03-03T04:26:47;94740.84;;;4.91;91.72
6435;BME280;3250;42.694;23.278;2023-03-03T04:29:13;94753.91;;;5.06;91.55
6435;BME280;3250;42.694;23.278;2023-03-03T04:31:38;94721.50;;;4.86;91.48
6435;BME280;3250;42.694;23.278;2023-03-03T04:34:03;94737.53;;;4.98;91.70
6435;BME280;3250;42.694;23.278;2023-03-03T04:36:29;94749.94;;;4.96;91.09
6435;BME280;3250;42.694;23.278;2023-03-03T04:38:54;94721.50;;;4.71;91.95
6435;BME280;3250;42.694;23.278;2023-03-03T04:41:20;94749.28;;;4.93;92.83
6435;BME280;3250;42.694;23.278;2023-03-03T04:43:45;94750.56;;;4.98;92.26
6435;BME280;3250;42.694;23.278;2023-03-03T04:46:10;94746.59;;;4.87;92.09
6435;BME280;3250;42.694;23.278;2023-03-03T04:48:36;94748.13;;;4.96;92.35
6435;BME280;3250;42.694;23.278;2023-03-03T04:51:02;94750.56;;;4.98;92.70
6435;BME280;3250;42.694;23.278;2023-03-03T04:53:28;94747.78;;;4.99;92.47
6435;BME280;3250;42.694;23.278;2023-03-03T04:55:53;94746.50;;;4.95;93.17
6435;BME280;3250;42.694;23.278;2023-03-03T04:58:19;94746.59;;;5.02;92.92
6435;BME280;3250;42.694;23.278;2023-03-03T05:00:45;94726.03;;;4.92;91.96
6435;BME280;3250;42.694;23.278;2023-03-03T05:03:11;94760.38;;;4.96;92.40
6435;BME280;3250;42.694;23.278;2023-03-03T05:05:37;94727.28;;;4.81;92.67
6435;BME280;3250;42.694;23.278;2023-03-03T05:08:03;94725.00;;;4.78;92.45
6435;BME280;3250;42.694;23.278;2023-03-03T05:10:28;94757.13;;;4.93;92.48
6435;BME280;3250;42.694;23.278;2023-03-03T05:12:54;94709.19;;;4.65;92.47
6435;BME280;3250;42.694;23.278;2023-03-03T05:15:19;94761.91;;;5.05;92.31
6435;BME280;3250;42.694;23.278;2023-03-03T05:17:45;94763.78;;;4.96;91.82
6435;BME280;3250;42.694;23.278;2023-03-03T05:20:11;94758.31;;;5.06;92.12
6435;BME280;3250;42.694;23.278;2023-03-03T05:22:37;94765.56;;;5.10;92.38
6435;BME280;3250;42.694;23.278;2023-03-03T05:25:03;94768.47;;;5.01;92.47
6435;BME280;3250;42.694;23.278;2023-03-03T05:27:28;94739.50;;;4.81;92.86
6435;BME280;3250;42.694;23.278;2023-03-03T05:29:54;94732.09;;;4.84;93.32
6435;BME280;3250;42.694;23.278;2023-03-03T05:32:19;94765.69;;;5.17;93.33
6435;BME280;3250;42.694;23.278;2023-03-03T05:34:45;94762.63;;;5.28;92.30
6435;BME280;3250;42.694;23.278;2023-03-03T05:37:10;94769.53;;;5.21;91.95
6435;BME280;3250;42.694;23.278;2023-03-03T05:39:36;94770.09;;;5.16;92.56
6435;BME280;3250;42.694;23.278;2023-03-03T05:42:01;94768.13;;;5.18;93.38
6435;BME280;3250;42.694;23.278;2023-03-03T05:44:27;94747.50;;;4.94;93.21
6435;BME280;3250;42.694;23.278;2023-03-03T05:46:52;94767.75;;;5.07;93.20
6435;BME280;3250;42.694;23.278;2023-03-03T05:49:18;94773.06;;;4.99;92.83
6435;BME280;3250;42.694;23.278;2023-03-03T05:51:44;94741.72;;;4.69;93.59
6435;BME280;3250;42.694;23.278;2023-03-03T05:54:09;94758.19;;;4.84;94.34
6435;BME280;3250;42.694;23.278;2023-03-03T05:56:35;94768.44;;;4.86;93.94
6435;BME280;3250;42.694;23.278;2023-03-03T05:59:00;94738.50;;;4.82;94.35
6435;BME280;3250;42.694;23.278;2023-03-03T06:01:26;94753.44;;;5.03;93.88
6435;BME280;3250;42.694;23.278;2023-03-03T06:03:52;94770.19;;;5.23;93.42
6435;BME280;3250;42.694;23.278;2023-03-03T06:06:18;94762.78;;;5.12;92.52
6435;BME280;3250;42.694;23.278;2023-03-03T06:08:44;94772.53;;;5.18;91.56
6435;BME280;3250;42.694;23.278;2023-03-03T06:11:09;94772.34;;;5.05;91.80
6435;BME280;3250;42.694;23.278;2023-03-03T06:13:35;94765.22;;;4.99;92.28
6435;BME280;3250;42.694;23.278;2023-03-03T06:16:01;94777.03;;;5.09;92.50
6435;BME280;3250;42.694;23.278;2023-03-03T06:18:26;94774.34;;;5.17;92.90
6435;BME280;3250;42.694;23.278;2023-03-03T06:20:53;94782.72;;;5.27;91.66
6435;BME280;3250;42.694;23.278;2023-03-03T06:23:18;94768.56;;;5.07;90.87
6435;BME280;3250;42.694;23.278;2023-03-03T06:25:44;94772.81;;;5.08;91.21
6435;BME280;3250;42.694;23.278;2023-03-03T06:28:10;94770.72;;;5.04;91.77
6435;BME280;3250;42.694;23.278;2023-03-03T06:30:35;94760.75;;;5.07;92.28
6435;BME280;3250;42.694;23.278;2023-03-03T06:33:01;94787.94;;;5.27;92.80
6435;BME280;3250;42.694;23.278;2023-03-03T06:35:26;94782.50;;;5.29;92.54
6435;BME280;3250;42.694;23.278;2023-03-03T06:37:51;94740.94;;;5.13;92.83
6435;BME280;3250;42.694;23.278;2023-03-03T06:40:17;94773.59;;;5.38;92.53
6435;BME280;3250;42.694;23.278;2023-03-03T06:42:42;94764.69;;;5.32;92.24
6435;BME280;3250;42.694;23.278;2023-03-03T06:45:08;94773.25;;;5.41;92.59
6435;BME280;3250;42.694;23.278;2023-03-03T06:47:34;94772.50;;;5.47;91.76
6435;BME280;3250;42.694;23.278;2023-03-03T06:49:59;94784.28;;;5.58;90.92
6435;BME280;3250;42.694;23.278;2023-03-03T06:52:26;94792.50;;;5.69;90.56
6435;BME280;3250;42.694;23.278;2023-03-03T06:54:57;94788.34;;;5.60;90.35
6435;BME280;3250;42.694;23.278;2023-03-03T06:57:28;94799.13;;;5.72;89.85
6435;BME280;3250;42.694;23.278;2023-03-03T07:00:18;94792.63;;;5.83;88.99
6435;BME280;3250;42.694;23.278;2023-03-03T07:02:45;94800.81;;;5.80;88.23
6435;BME280;3250;42.694;23.278;2023-03-03T07:05:16;94776.72;;;5.63;89.10
6435;BME280;3250;42.694;23.278;2023-03-03T07:07:43;94796.41;;;5.80;90.40
6435;BME280;3250;42.694;23.278;2023-03-03T07:10:21;94756.75;;;5.55;90.66
6435;BME280;3250;42.694;23.278;2023-03-03T07:12:48;94802.66;;;5.94;90.77
6435;BME280;3250;42.694;23.278;2023-03-03T07:15:16;94800.94;;;5.86;90.38
6435;BME280;3250;42.694;23.278;2023-03-03T07:17:47;94788.22;;;5.83;88.68
6435;BME280;3250;42.694;23.278;2023-03-03T07:20:20;94803.19;;;5.89;89.02
6435;BME280;3250;42.694;23.278;2023-03-03T07:22:46;94797.31;;;5.87;89.74
6435;BME280;3250;42.694;23.278;2023-03-03T07:27:53;94803.81;;;5.91;89.43
6435;BME280;3250;42.694;23.278;2023-03-03T07:30:24;94805.69;;;5.83;89.47
6435;BME280;3250;42.694;23.278;2023-03-03T07:32:57;94796.72;;;5.71;89.50
6435;BME280;3250;42.694;23.278;2023-03-03T07:35:39;94792.22;;;5.79;89.37
6435;BME280;3250;42.694;23.278;2023-03-03T07:38:24;94801.03;;;5.78;88.47
6435;BME280;3250;42.694;23.278;2023-03-03T07:40:55;94794.19;;;5.77;89.38
6435;BME280;3250;42.694;23.278;2023-03-03T07:43:35;94801.22;;;5.77;89.53
6435;BME280;3250;42.694;23.278;2023-03-03T07:48:37;94800.22;;;5.48;89.98
6435;BME280;3250;42.694;23.278;2023-03-03T07:51:15;94737.69;;;5.11;90.49
6435;BME280;3250;42.694;23.278;2023-03-03T07:53:43;94733.28;;;4.97;91.72
6435;BME280;3250;42.694;23.278;2023-03-03T07:58:45;94790.78;;;5.32;92.67
6435;BME280;3250;42.694;23.278;2023-03-03T08:01:23;94787.38;;;5.32;91.63
6435;BME280;3250;42.694;23.278;2023-03-03T08:03:53;94777.66;;;5.26;92.30
6435;BME280;3250;42.694;23.278;2023-03-03T08:08:47;94786.81;;;5.66;91.45
6435;BME280;3250;42.694;23.278;2023-03-03T08:11:12;94746.88;;;5.51;90.62
6435;BME280;3250;42.694;23.278;2023-03-03T08:13:40;94794.19;;;5.62;90.51
6435;BME280;3250;42.694;23.278;2023-03-03T08:18:41;94788.66;;;6.01;91.99
6435;BME280;3250;42.694;23.278;2023-03-03T08:23:43;94772.31;;;6.14;88.78
6435;BME280;3250;42.694;23.278;2023-03-03T08:26:09;94777.03;;;6.25;88.30
6435;BME280;3250;42.694;23.278;2023-03-03T08:28:36;94751.09;;;6.24;88.65
6435;BME280;3250;42.694;23.278;2023-03-03T08:31:02;94754.28;;;6.19;87.96
6435;BME280;3250;42.694;23.278;2023-03-03T08:33:29;94743.69;;;6.27;89.12
6435;BME280;3250;42.694;23.278;2023-03-03T08:35:54;94736.66;;;6.28;88.31
6435;BME280;3250;42.694;23.278;2023-03-03T08:38:20;94775.31;;;6.54;88.44
6435;BME280;3250;42.694;23.278;2023-03-03T08:40:46;94772.69;;;6.54;88.80
6435;BME280;3250;42.694;23.278;2023-03-03T08:43:12;94772.94;;;6.59;88.42
6435;BME280;3250;42.694;23.278;2023-03-03T08:45:45;94773.63;;;6.46;86.90
6435;BME280;3250;42.694;23.278;2023-03-03T08:48:12;94757.28;;;6.37;87.41
6435;BME280;3250;42.694;23.278;2023-03-03T08:50:37;94753.22;;;6.35;88.11
6435;BME280;3250;42.694;23.278;2023-03-03T08:53:04;94749.47;;;6.44;88.02
6435;BME280;3250;42.694;23.278;2023-03-03T08:55:30;94765.91;;;6.59;88.28
6435;BME280;3250;42.694;23.278;2023-03-03T08:57:55;94777.97;;;6.81;87.54
6435;BME280;3250;42.694;23.278;2023-03-03T09:00:21;94748.22;;;6.61;85.32
6435;BME280;3250;42.694;23.278;2023-03-03T09:02:47;94781.75;;;6.79;85.59
6435;BME280;3250;42.694;23.278;2023-03-03T09:05:15;94755.38;;;6.74;86.27
6435;BME280;3250;42.694;23.278;2023-03-03T09:07:43;94772.34;;;6.85;85.81
6435;BME280;3250;42.694;23.278;2023-03-03T09:10:10;94745.66;;;6.68;84.61
6435;BME280;3250;42.694;23.278;2023-03-03T09:12:42;94767.81;;;6.72;85.21
6435;BME280;3250;42.694;23.278;2023-03-03T09:17:45;94783.03;;;6.62;85.76
6435;BME280;3250;42.694;23.278;2023-03-03T09:20:26;94773.63;;;6.46;86.61
6435;BME280;3250;42.694;23.278;2023-03-03T09:22:52;94759.63;;;6.54;87.11
6435;BME280;3250;42.694;23.278;2023-03-03T09:25:32;94749.59;;;6.57;86.92
6435;BME280;3250;42.694;23.278;2023-03-03T09:27:58;94768.69;;;6.79;86.24
6435;BME280;3250;42.694;23.278;2023-03-03T09:32:54;94767.97;;;6.92;87.56
6435;BME280;3250;42.694;23.278;2023-03-03T09:35:35;94769.25;;;7.02;85.62
6435;BME280;3250;42.694;23.278;2023-03-03T09:43:43;94770.09;;;7.09;85.12
6435;BME280;3250;42.694;23.278;2023-03-03T09:57:35;94718.63;;;7.16;83.15
6435;BME280;3250;42.694;23.278;2023-03-03T10:06:07;94753.56;;;7.37;83.48
6435;BME280;3250;42.694;23.278;2023-03-03T10:11:09;94768.25;;;7.38;83.48
6435;BME280;3250;42.694;23.278;2023-03-03T10:18:57;94746.19;;;7.19;84.76
6435;BME280;3250;42.694;23.278;2023-03-03T10:21:46;94759.41;;;7.39;85.44
6435;BME280;3250;42.694;23.278;2023-03-03T10:24:33;94754.59;;;7.42;85.90
6435;BME280;3250;42.694;23.278;2023-03-03T10:32:56;94748.50;;;7.35;85.23
6435;BME280;3250;42.694;23.278;2023-03-03T10:40:47;94741.56;;;7.55;85.93
6435;BME280;3250;42.694;23.278;2023-03-03T10:46:18;94707.03;;;7.39;85.47
6435;BME280;3250;42.694;23.278;2023-03-03T11:05:45;94717.50;;;7.86;84.73
6435;BME280;3250;42.694;23.278;2023-03-03T11:08:19;94726.56;;;7.90;83.85
6435;BME280;3250;42.694;23.278;2023-03-03T11:11:03;94709.03;;;7.84;84.43
6435;BME280;3250;42.694;23.278;2023-03-03T11:18:34;94707.25;;;7.98;84.35
6435;BME280;3250;42.694;23.278;2023-03-03T11:21:09;94705.44;;;7.99;84.67
6435;BME280;3250;42.694;23.278;2023-03-03T11:28:55;94700.81;;;8.14;85.57
6435;BME280;3250;42.694;23.278;2023-03-03T11:31:36;94706.47;;;8.17;85.16
6435;BME280;3250;42.694;23.278;2023-03-03T11:36:44;94695.56;;;8.01;84.13
6435;BME280;3250;42.694;23.278;2023-03-03T11:39:17;94689.50;;;7.93;84.14
6435;BME280;3250;42.694;23.278;2023-03-03T11:44:47;94681.22;;;7.96;85.28
6435;BME280;3250;42.694;23.278;2023-03-03T11:47:32;94702.63;;;8.13;85.01
6435;BME280;3250;42.694;23.278;2023-03-03T11:53:05;94688.31;;;8.16;85.76
6435;BME280;3250;42.694;23.278;2023-03-03T11:55:38;94681.88;;;8.12;86.17
6435;BME280;3250;42.694;23.278;2023-03-03T12:00:51;94679.44;;;8.17;85.88
6435;BME280;3250;42.694;23.278;2023-03-03T12:03:40;94662.09;;;8.16;85.99
6435;BME280;3250;42.694;23.278;2023-03-03T12:06:22;94682.31;;;8.35;86.64
6435;BME280;3250;42.694;23.278;2023-03-03T12:09:24;94695.22;;;8.43;86.14
6435;BME280;3250;42.694;23.278;2023-03-03T12:17:58;94686.13;;;8.39;85.82
6435;BME280;3250;42.694;23.278;2023-03-03T12:23:43;94689.19;;;8.36;85.80
6435;BME280;3250;42.694;23.278;2023-03-03T12:26:53;94668.56;;;8.20;86.54
6435;BME280;3250;42.694;23.278;2023-03-03T12:38:48;94692.16;;;8.20;87.42
6435;BME280;3250;42.694;23.278;2023-03-03T12:41:18;94701.03;;;8.19;87.46
6435;BME280;3250;42.694;23.278;2023-03-03T12:43:55;94686.50;;;8.03;87.12
6435;BME280;3250;42.694;23.278;2023-03-03T12:47:01;94692.31;;;7.99;87.14
6435;BME280;3250;42.694;23.278;2023-03-03T12:49:49;94695.34;;;7.95;88.01
6435;BME280;3250;42.694;23.278;2023-03-03T12:55:10;94693.31;;;7.84;87.64
6435;BME280;3250;42.694;23.278;2023-03-03T12:57:47;94700.34;;;7.84;88.27
6435;BME280;3250;42.694;23.278;2023-03-03T13:00:44;94674.53;;;7.68;89.00
6435;BME280;3250;42.694;23.278;2023-03-03T13:06:06;94684.63;;;7.77;89.25
6435;BME280;3250;42.694;23.278;2023-03-03T13:08:50;94685.44;;;7.78;89.38
6435;BME280;3250;42.694;23.278;2023-03-03T13:14:50;94682.41;;;7.87;89.49
6435;BME280;3250;42.694;23.278;2023-03-03T13:17:30;94676.59;;;7.92;89.40
6435;BME280;3250;42.694;23.278;2023-03-03T13:20:11;94682.06;;;8.04;90.00
6435;BME280;3250;42.694;23.278;2023-03-03T13:27:59;94675.66;;;8.52;89.93
6435;BME280;3250;42.694;23.278;2023-03-03T13:30:29;94654.06;;;8.50;88.70
6435;BME280;3250;42.694;23.278;2023-03-03T13:33:25;94677.06;;;8.81;87.91
6435;BME280;3250;42.694;23.278;2023-03-03T13:35:53;94680.28;;;8.90;87.21
6435;BME280;3250;42.694;23.278;2023-03-03T13:38:30;94658.69;;;8.75;86.30
6435;BME280;3250;42.694;23.278;2023-03-03T13:41:08;94679.06;;;8.86;86.23
6435;BME280;3250;42.694;23.278;2023-03-03T13:43:55;94645.78;;;8.60;86.30
6435;BME280;3250;42.694;23.278;2023-03-03T13:46:31;94677.47;;;8.72;85.13
6435;BME280;3250;42.694;23.278;2023-03-03T14:10:35;94689.19;;;8.49;86.69
6435;BME280;3250;42.694;23.278;2023-03-03T14:13:20;94676.06;;;8.49;87.12
6435;BME280;3250;42.694;23.278;2023-03-03T14:15:57;94657.28;;;8.39;86.96
6435;BME280;3250;42.694;23.278;2023-03-03T14:22:04;94667.81;;;8.46;86.69
6435;BME280;3250;42.694;23.278;2023-03-03T14:24:30;94661.53;;;8.40;87.28
6435;BME280;3250;42.694;23.278;2023-03-03T14:26:58;94665.78;;;8.41;87.53
6435;BME280;3250;42.694;23.278;2023-03-03T14:32:24;94657.91;;;8.41;87.36
6435;BME280;3250;42.694;23.278;2023-03-03T14:34:58;94660.31;;;8.43;87.35
6435;BME280;3250;42.694;23.278;2023-03-03T14:37:27;94657.28;;;8.39;86.98
6435;BME280;3250;42.694;23.278;2023-03-03T14:40:09;94640.72;;;8.25;87.25
6435;BME280;3250;42.694;23.278;2023-03-03T14:42:46;94637.31;;;8.31;87.56
6435;BME280;3250;42.694;23.278;2023-03-03T14:48:26;94640.75;;;8.45;87.82
6435;BME280;3250;42.694;23.278;2023-03-03T14:50:59;94635.31;;;8.47;87.10
6435;BME280;3250;42.694;23.278;2023-03-03T14:53:43;94657.09;;;8.60;87.17
6435;BME280;3250;42.694;23.278;2023-03-03T14:58:47;94656.47;;;8.65;86.49
6435;BME280;3250;42.694;23.278;2023-03-03T15:01:20;94630.06;;;8.53;86.52
6435;BME280;3250;42.694;23.278;2023-03-03T15:03:49;94650.63;;;8.63;86.24
6435;BME280;3250;42.694;23.278;2023-03-03T15:07:30;94646.00;;;8.58;85.60
6435;BME280;3250;42.694;23.278;2023-03-03T15:09:39;94656.91;;;8.55;85.61
6435;BME280;3250;42.694;23.278;2023-03-03T15:15:17;94660.53;;;8.48;86.44
6435;BME280;3250;42.694;23.278;2023-03-03T15:23:21;94649.03;;;8.36;86.75
6435;BME280;3250;42.694;23.278;2023-03-03T15:39:48;94655.88;;;8.30;86.07
6435;BME280;3250;42.694;23.278;2023-03-03T15:42:26;94662.94;;;8.29;86.48
6435;BME280;3250;42.694;23.278;2023-03-03T15:45:26;94658.50;;;8.30;86.14
6435;BME280;3250;42.694;23.278;2023-03-03T15:50:54;94674.63;;;8.27;86.30
6435;BME280;3250;42.694;23.278;2023-03-03T15:56:17;94675.00;;;8.24;86.53
6435;BME280;3250;42.694;23.278;2023-03-03T16:02:24;94654.03;;;8.04;86.64
6435;BME280;3250;42.694;23.278;2023-03-03T16:07:49;94680.88;;;8.13;87.05
6435;BME280;3250;42.694;23.278;2023-03-03T16:13:29;94690.75;;;8.11;87.41
6435;BME280;3250;42.694;23.278;2023-03-03T16:16:33;94694.75;;;8.07;87.42
6435;BME280;3250;42.694;23.278;2023-03-03T16:19:19;94687.09;;;8.05;87.30
6435;BME280;3250;42.694;23.278;2023-03-03T16:27:32;94688.09;;;7.97;87.39
6435;BME280;3250;42.694;23.278;2023-03-03T16:30:09;94689.06;;;7.90;87.40
6435;BME280;3250;42.694;23.278;2023-03-03T16:32:43;94691.69;;;7.83;87.96
6435;BME280;3250;42.694;23.278;2023-03-03T16:38:00;94682.19;;;7.69;88.79
6435;BME280;3250;42.694;23.278;2023-03-03T16:40:32;94705.19;;;7.80;88.59
6435;BME280;3250;42.694;23.278;2023-03-03T16:43:20;94709.41;;;7.75;88.73
6435;BME280;3250;42.694;23.278;2023-03-03T16:45:48;94660.72;;;7.39;88.86
6435;BME280;3250;42.694;23.278;2023-03-03T16:48:25;94705.34;;;7.66;89.24
6435;BME280;3250;42.694;23.278;2023-03-03T17:01:54;94734.75;;;7.27;92.08
6435;BME280;3250;42.694;23.278;2023-03-03T17:07:33;94730.41;;;7.34;91.64
6435;BME280;3250;42.694;23.278;2023-03-03T17:21:02;94741.28;;;7.37;91.57
6435;BME280;3250;42.694;23.278;2023-03-03T17:23:41;94741.69;;;7.34;91.20
6435;BME280;3250;42.694;23.278;2023-03-03T17:29:04;94745.50;;;7.38;91.26
6435;BME280;3250;42.694;23.278;2023-03-03T17:45:34;94758.41;;;7.40;92.21
6435;BME280;3250;42.694;23.278;2023-03-03T18:15:28;94792.06;;;7.43;90.20
6435;BME280;3250;42.694;23.278;2023-03-03T18:18:02;94787.22;;;7.40;90.75
6435;BME280;3250;42.694;23.278;2023-03-03T18:23:34;94782.75;;;7.34;91.32
6435;BME280;3250;42.694;23.278;2023-03-03T18:26:36;94789.47;;;7.43;90.98
6435;BME280;3250;42.694;23.278;2023-03-03T18:29:09;94782.75;;;7.34;90.46
6435;BME280;3250;42.694;23.278;2023-03-03T18:36:54;94776.13;;;7.10;91.16
6435;BME280;3250;42.694;23.278;2023-03-03T18:39:38;94778.56;;;7.11;90.95
6435;BME280;3250;42.694;23.278;2023-03-03T18:44:51;94809.78;;;7.41;90.60
6435;BME280;3250;42.694;23.278;2023-03-03T18:47:18;94812.00;;;7.44;90.96
6435;BME280;3250;42.694;23.278;2023-03-03T18:50:05;94801.31;;;7.39;90.60
6435;BME280;3250;42.694;23.278;2023-03-03T18:55:53;94823.91;;;7.46;90.28
6435;BME280;3250;42.694;23.278;2023-03-03T18:58:39;94823.91;;;7.46;91.00
6435;BME280;3250;42.694;23.278;2023-03-03T19:09:04;94810.13;;;7.31;90.48